sensor_id;sensor_type;location;lat;lon;timestamp;P1;durP1;ratioP1;P2;durP2;ratioP2
1164;SDS011;571;50.930;6.926;2023-08-12T02:47:20;21.80;;;19.67;;
1164;SDS011;571;50.930;6.926;2023-08-12T02:49:56;23.87;;;20.70;;
1164;SDS011;571;50.930;6.926;2023-08-12T02:52:32;20.10;;;17.97;;
1164;SDS011;571;50.930;6.926;2023-08-12T02:55:11;21.00;;;16.37;;
1164;SDS011;571;50.930;6.926;2023-08-12T02:58:01;24.17;;;18.13;;
1164;SDS011;571;50.930;6.926;2023-08-12T03:03:12;24.03;;;19.20;;
1164;SDS011;571;50.930;6.926;2023-08-12T03:06:11;21.43;;;18.73;;
1164;SDS011;571;50.930;6.926;2023-08-12T03:09:05;20.47;;;18.37;;
1164;SDS011;571;50.930;6.926;2023-08-12T03:14:45;22.37;;;20.07;;
1164;SDS011;571;50.930;6.926;2023-08-12T03:26:22;23.17;;;20.87;;
1164;SDS011;571;50.930;6.926;2023-08-12T03:29:22;21.93;;;19.80;;
1164;SDS011;571;50.930;6.926;2023-08-12T03:32:09;20.57;;;18.40;;
1164;SDS011;571;50.930;6.926;2023-08-12T03:34:48;19.23;;;17.40;;
1164;SDS011;571;50.930;6.926;2023-08-12T03:37:37;22.13;;;18.27;;
1164;SDS011;571;50.930;6.926;2023-08-12T03:43:14;16.80;;;15.00;;
1164;SDS011;571;50.930;6.926;2023-08-12T03:46:08;21.70;;;15.60;;
1164;SDS011;571;50.930;6.926;2023-08-12T03:48:38;16.40;;;14.83;;
1164;SDS011;571;50.930;6.926;2023-08-12T03:51:14;18.30;;;14.00;;
1164;SDS011;571;50.930;6.926;2023-08-12T03:53:47;14.33;;;12.83;;
1164;SDS011;571;50.930;6.926;2023-08-12T03:59:18;14.40;;;11.90;;
1164;SDS011;571;50.930;6.926;2023-08-12T04:02:11;13.20;;;10.97;;
1164;SDS011;571;50.930;6.926;2023-08-12T04:05:04;13.80;;;11.90;;
1164;SDS011;571;50.930;6.926;2023-08-12T04:11:15;14.20;;;12.47;;
1164;SDS011;571;50.930;6.926;2023-08-12T04:14:38;12.80;;;11.50;;
1164;SDS011;571;50.930;6.926;2023-08-12T04:17:36;13.40;;;12.10;;
1164;SDS011;571;50.930;6.926;2023-08-12T04:20:07;12.70;;;11.40;;
1164;SDS011;571;50.930;6.926;2023-08-12T04:22:35;13.33;;;11.40;;
1164;SDS011;571;50.930;6.926;2023-08-12T04:25:19;13.20;;;12.00;;
1164;SDS011;571;50.930;6.926;2023-08-12T04:27:50;13.00;;;11.90;;
1164;SDS011;571;50.930;6.926;2023-08-12T04:30:48;11.70;;;10.63;;
1164;SDS011;571;50.930;6.926;2023-08-12T04:36:47;18.83;;;11.53;;
1164;SDS011;571;50.930;6.926;2023-08-12T04:45:34;11.90;;;10.80;;
1164;SDS011;571;50.930;6.926;2023-08-12T04:48:18;12.30;;;11.10;;
1164;SDS011;571;50.930;6.926;2023-08-12T04:56:44;12.83;;;11.53;;
1164;SDS011;571;50.930;6.926;2023-08-12T04:59:24;11.33;;;10.10;;
1164;SDS011;571;50.930;6.926;2023-08-12T05:02:07;12.67;;;11.37;;
1164;SDS011;571;50.930;6.926;2023-08-12T05:04:50;12.63;;;9.80;;
1164;SDS011;571;50.930;6.926;2023-08-12T05:07:56;10.70;;;8.97;;
1164;SDS011;571;50.930;6.926;2023-08-12T05:10:41;12.13;;;9.93;;
1164;SDS011;571;50.930;6.926;2023-08-12T05:13:25;11.07;;;9.93;;
1164;SDS011;571;50.930;6.926;2023-08-12T05:16:02;10.83;;;9.80;;
1164;SDS011;571;50.930;6.926;2023-08-12T05:18:35;8.80;;;8.10;;
1164;SDS011;571;50.930;6.926;2023-08-12T05:21:09;10.60;;;9.50;;
1164;SDS011;571;50.930;6.926;2023-08-12T05:23:42;10.93;;;8.70;;
1164;SDS011;571;50.930;6.926;2023-08-12T05:26:14;9.40;;;8.50;;
1164;SDS011;571;50.930;6.926;2023-08-12T05:28:40;8.80;;;8.00;;
1164;SDS011;571;50.930;6.926;2023-08-12T05:31:07;9.57;;;8.67;;
1164;SDS011;571;50.930;6.926;2023-08-12T05:33:36;8.27;;;7.57;;
1164;SDS011;571;50.930;6.926;2023-08-12T05:36:10;9.27;;;8.57;;
1164;SDS011;571;50.930;6.926;2023-08-12T05:38:42;8.20;;;7.40;;
1164;SDS011;571;50.930;6.926;2023-08-12T05:41:15;7.87;;;7.27;;
1164;SDS011;571;50.930;6.926;2023-08-12T05:43:42;12.27;;;8.20;;
1164;SDS011;571;50.930;6.926;2023-08-12T05:46:12;8.20;;;7.50;;
1164;SDS011;571;50.930;6.926;2023-08-12T05:48:44;9.67;;;8.50;;
1164;SDS011;571;50.930;6.926;2023-08-12T05:51:22;10.03;;;9.03;;
1164;SDS011;571;50.930;6.926;2023-08-12T05:53:51;10.17;;;8.50;;
1164;SDS011;571;50.930;6.926;2023-08-12T05:56:24;10.97;;;9.60;;
1164;SDS011;571;50.930;6.926;2023-08-12T05:58:53;10.40;;;9.30;;
1164;SDS011;571;50.930;6.926;2023-08-12T06:01:22;10.00;;;9.10;;
1164;SDS011;571;50.930;6.926;2023-08-12T06:04:08;10.30;;;9.40;;
1164;SDS011;571;50.930;6.926;2023-08-12T06:06:42;10.67;;;9.63;;
1164;SDS011;571;50.930;6.926;2023-08-12T06:09:09;10.83;;;9.93;;
1164;SDS011;571;50.930;6.926;2023-08-12T06:11:36;11.50;;;10.40;;
1164;SDS011;571;50.930;6.926;2023-08-12T06:14:03;11.30;;;10.20;;
1164;SDS011;571;50.930;6.926;2023-08-12T06:16:30;16.30;;;10.90;;
1164;SDS011;571;50.930;6.926;2023-08-12T06:18:56;11.63;;;10.43;;
1164;SDS011;571;50.930;6.926;2023-08-12T06:21:32;11.63;;;10.53;;
1164;SDS011;571;50.930;6.926;2023-08-12T06:24:09;12.33;;;11.13;;
1164;SDS011;571;50.930;6.926;2023-08-12T06:26:53;11.37;;;10.17;;
1164;SDS011;571;50.930;6.926;2023-08-12T06:29:54;9.57;;;8.50;;
1164;SDS011;571;50.930;6.926;2023-08-12T06:32:38;12.33;;;9.50;;
1164;SDS011;571;50.930;6.926;2023-08-12T06:35:17;10.10;;;8.07;;
1164;SDS011;571;50.930;6.926;2023-08-12T06:37:54;9.80;;;7.30;;
1164;SDS011;571;50.930;6.926;2023-08-12T06:40:27;7.57;;;6.87;;
1164;SDS011;571;50.930;6.926;2023-08-12T06:43:06;6.80;;;6.20;;
1164;SDS011;571;50.930;6.926;2023-08-12T06:45:42;6.07;;;5.37;;
1164;SDS011;571;50.930;6.926;2023-08-12T06:48:09;4.90;;;4.50;;
1164;SDS011;571;50.930;6.926;2023-08-12T06:50:36;5.60;;;4.63;;
1164;SDS011;571;50.930;6.926;2023-08-12T06:53:07;5.53;;;4.90;;
1164;SDS011;571;50.930;6.926;2023-08-12T06:55:48;7.97;;;4.43;;
1164;SDS011;571;50.930;6.926;2023-08-12T06:58:34;5.63;;;4.20;;
1164;SDS011;571;50.930;6.926;2023-08-12T07:01:09;4.60;;;3.40;;
1164;SDS011;571;50.930;6.926;2023-08-12T07:03:45;4.70;;;3.93;;
1164;SDS011;571;50.930;6.926;2023-08-12T07:06:15;4.10;;;3.43;;
1164;SDS011;571;50.930;6.926;2023-08-12T07:09:08;7.30;;;5.60;;
1164;SDS011;571;50.930;6.926;2023-08-12T07:11:47;5.20;;;4.73;;
1164;SDS011;571;50.930;6.926;2023-08-12T07:14:17;5.20;;;4.10;;
1164;SDS011;571;50.930;6.926;2023-08-12T07:37:23;4.20;;;2.87;;
1164;SDS011;571;50.930;6.926;2023-08-12T07:43:22;4.03;;;3.67;;
1164;SDS011;571;50.930;6.926;2023-08-12T07:46:14;4.00;;;3.70;;
1164;SDS011;571;50.930;6.926;2023-08-12T07:48:43;5.20;;;3.47;;
1164;SDS011;571;50.930;6.926;2023-08-12T07:51:14;3.40;;;3.10;;
1164;SDS011;571;50.930;6.926;2023-08-12T07:53:51;3.17;;;2.87;;
1164;SDS011;571;50.930;6.926;2023-08-12T07:56:23;2.97;;;2.47;;
1164;SDS011;571;50.930;6.926;2023-08-12T07:59:13;4.00;;;3.17;;
1164;SDS011;571;50.930;6.926;2023-08-12T08:01:42;4.07;;;2.97;;
1164;SDS011;571;50.930;6.926;2023-08-12T08:04:11;5.10;;;3.30;;
1164;SDS011;571;50.930;6.926;2023-08-12T08:20:15;3.23;;;3.03;;
1164;SDS011;571;50.930;6.926;2023-08-12T08:27:04;2.70;;;2.40;;
1164;SDS011;571;50.930;6.926;2023-08-12T08:29:53;2.73;;;2.50;;
1164;SDS011;571;50.930;6.926;2023-08-12T08:49:36;3.17;;;2.50;;
1164;SDS011;571;50.930;6.926;2023-08-12T08:55:59;5.50;;;2.50;;
1164;SDS011;571;50.930;6.926;2023-08-12T08:58:52;2.90;;;2.70;;
1164;SDS011;571;50.930;6.926;2023-08-12T09:04:22;3.10;;;2.80;;
1164;SDS011;571;50.930;6.926;2023-08-12T09:07:06;4.47;;;2.67;;
1164;SDS011;571;50.930;6.926;2023-08-12T09:13:37;3.00;;;2.50;;
1164;SDS011;571;50.930;6.926;2023-08-12T09:16:54;4.73;;;2.33;;
1164;SDS011;571;50.930;6.926;2023-08-12T09:19:22;3.70;;;2.60;;
1164;SDS011;571;50.930;6.926;2023-08-12T09:21:51;2.40;;;2.20;;
1164;SDS011;571;50.930;6.926;2023-08-12T09:24:23;3.27;;;2.97;;
1164;SDS011;571;50.930;6.926;2023-08-12T09:26:51;4.70;;;2.67;;
1164;SDS011;571;50.930;6.926;2023-08-12T09:29:21;6.03;;;2.90;;
1164;SDS011;571;50.930;6.926;2023-08-12T09:31:48;2.80;;;2.60;;
1164;SDS011;571;50.930;6.926;2023-08-12T09:34:15;4.17;;;3.00;;
1164;SDS011;571;50.930;6.926;2023-08-12T09:36:46;3.80;;;2.10;;
1164;SDS011;571;50.930;6.926;2023-08-12T09:39:15;2.80;;;2.20;;
1164;SDS011;571;50.930;6.926;2023-08-12T09:41:45;2.50;;;2.30;;
1164;SDS011;571;50.930;6.926;2023-08-12T09:44:11;3.60;;;1.97;;
1164;SDS011;571;50.930;6.926;2023-08-12T09:46:41;2.60;;;2.40;;
1164;SDS011;571;50.930;6.926;2023-08-12T09:49:08;4.60;;;2.47;;
1164;SDS011;571;50.930;6.926;2023-08-12T09:51:38;2.57;;;2.30;;
1164;SDS011;571;50.930;6.926;2023-08-12T09:54:08;3.10;;;2.50;;
1164;SDS011;571;50.930;6.926;2023-08-12T09:56:39;2.77;;;2.43;;
1164;SDS011;571;50.930;6.926;2023-08-12T09:59:07;3.20;;;2.70;;
1164;SDS011;571;50.930;6.926;2023-08-12T10:01:48;2.40;;;1.80;;
1164;SDS011;571;50.930;6.926;2023-08-12T10:04:20;3.27;;;2.37;;
1164;SDS011;571;50.930;6.926;2023-08-12T10:06:49;2.40;;;1.80;;
1164;SDS011;571;50.930;6.926;2023-08-12T10:09:16;2.83;;;2.40;;
1164;SDS011;571;50.930;6.926;2023-08-12T10:11:43;6.20;;;3.20;;
1164;SDS011;571;50.930;6.926;2023-08-12T10:14:11;3.93;;;2.53;;
1164;SDS011;571;50.930;6.926;2023-08-12T10:16:39;2.97;;;2.50;;
1164;SDS011;571;50.930;6.926;2023-08-12T10:19:13;4.63;;;3.07;;
1164;SDS011;571;50.930;6.926;2023-08-12T10:21:43;3.20;;;2.43;;
1164;SDS011;571;50.930;6.926;2023-08-12T10:24:15;2.93;;;2.60;;
1164;SDS011;571;50.930;6.926;2023-08-12T10:33:46;2.67;;;1.90;;
1164;SDS011;571;50.930;6.926;2023-08-12T10:39:34;2.47;;;1.77;;
1164;SDS011;571;50.930;6.926;2023-08-12T10:45:46;2.87;;;1.53;;
1164;SDS011;571;50.930;6.926;2023-08-12T11:05:43;1.97;;;1.53;;
1164;SDS011;571;50.930;6.926;2023-08-12T11:08:26;2.20;;;1.70;;
1164;SDS011;571;50.930;6.926;2023-08-12T11:10:57;4.30;;;1.37;;
1164;SDS011;571;50.930;6.926;2023-08-12T11:14:05;1.50;;;1.20;;
1164;SDS011;571;50.930;6.926;2023-08-12T11:17:45;3.37;;;1.60;;
1164;SDS011;571;50.930;6.926;2023-08-12T11:20:22;4.47;;;2.00;;
1164;SDS011;571;50.930;6.926;2023-08-12T11:23:26;2.70;;;1.80;;
1164;SDS011;571;50.930;6.926;2023-08-12T11:27:46;2.53;;;1.77;;
1164;SDS011;571;50.930;6.926;2023-08-12T11:29:53;2.60;;;1.50;;
1164;SDS011;571;50.930;6.926;2023-08-12T11:32:43;2.27;;;1.63;;
1164;SDS011;571;50.930;6.926;2023-08-12T11:35:28;2.07;;;1.97;;
1164;SDS011;571;50.930;6.926;2023-08-12T11:38:02;2.30;;;1.80;;
1164;SDS011;571;50.930;6.926;2023-08-12T11:41:08;1.83;;;1.63;;
1164;SDS011;571;50.930;6.926;2023-08-12T11:44:10;2.17;;;1.60;;
1164;SDS011;571;50.930;6.926;2023-08-12T11:47:20;1.57;;;1.47;;
1164;SDS011;571;50.930;6.926;2023-08-12T11:50:18;1.57;;;1.47;;
1164;SDS011;571;50.930;6.926;2023-08-12T11:53:34;2.00;;;1.80;;
1164;SDS011;571;50.930;6.926;2023-08-12T12:43:36;2.30;;;1.57;;
1164;SDS011;571;50.930;6.926;2023-08-12T12:46:08;1.63;;;1.00;;
1164;SDS011;571;50.930;6.926;2023-08-12T12:51:55;1.43;;;1.33;;
1164;SDS011;571;50.930;6.926;2023-08-12T12:58:47;2.43;;;1.27;;
1164;SDS011;571;50.930;6.926;2023-08-12T13:01:54;3.87;;;1.20;;
1164;SDS011;571;50.930;6.926;2023-08-12T13:12:07;5.40;;;2.00;;
1164;SDS011;571;50.930;6.926;2023-08-12T13:15:16;4.60;;;1.83;;
1164;SDS011;571;50.930;6.926;2023-08-12T13:18:24;2.87;;;1.40;;
1164;SDS011;571;50.930;6.926;2023-08-12T13:39:00;1.53;;;0.60;;
1164;SDS011;571;50.930;6.926;2023-08-12T13:41:50;5.23;;;0.90;;
1164;SDS011;571;50.930;6.926;2023-08-12T14:05:21;1.43;;;0.90;;
1164;SDS011;571;50.930;6.926;2023-08-12T14:08:03;1.40;;;0.60;;
1164;SDS011;571;50.930;6.926;2023-08-12T14:17:47;0.60;;;0.40;;
1164;SDS011;571;50.930;6.926;2023-08-12T14:20:34;0.80;;;0.50;;
1164;SDS011;571;50.930;6.926;2023-08-12T14:23:01;0.50;;;0.40;;
1164;SDS011;571;50.930;6.926;2023-08-12T14:25:28;0.70;;;0.50;;
1164;SDS011;571;50.930;6.926;2023-08-12T14:27:55;1.80;;;0.40;;
1164;SDS011;571;50.930;6.926;2023-08-12T14:30:23;0.70;;;0.50;;
1164;SDS011;571;50.930;6.926;2023-08-12T14:32:50;1.00;;;0.63;;
1164;SDS011;571;50.930;6.926;2023-08-12T14:35:17;1.07;;;0.50;;
1164;SDS011;571;50.930;6.926;2023-08-12T14:37:45;1.13;;;0.50;;
1164;SDS011;571;50.930;6.926;2023-08-12T14:40:12;0.93;;;0.50;;
1164;SDS011;571;50.930;6.926;2023-08-12T14:42:39;1.53;;;0.60;;
1164;SDS011;571;50.930;6.926;2023-08-12T14:45:06;0.83;;;0.50;;
1164;SDS011;571;50.930;6.926;2023-08-12T14:47:34;0.80;;;0.70;;
1164;SDS011;571;50.930;6.926;2023-08-12T14:50:01;0.70;;;0.40;;
1164;SDS011;571;50.930;6.926;2023-08-12T14:52:29;0.67;;;0.40;;
1164;SDS011;571;50.930;6.926;2023-08-12T14:54:57;0.70;;;0.40;;
1164;SDS011;571;50.930;6.926;2023-08-12T14:57:24;1.20;;;0.40;;
1164;SDS011;571;50.930;6.926;2023-08-12T14:59:50;0.70;;;0.60;;
1164;SDS011;571;50.930;6.926;2023-08-12T15:02:19;3.23;;;0.90;;
1164;SDS011;571;50.930;6.926;2023-08-12T15:04:47;2.03;;;0.50;;
1164;SDS011;571;50.930;6.926;2023-08-12T15:07:15;1.60;;;0.70;;
1164;SDS011;571;50.930;6.926;2023-08-12T15:09:43;0.60;;;0.40;;
1164;SDS011;571;50.930;6.926;2023-08-12T15:12:11;1.37;;;0.80;;
1164;SDS011;571;50.930;6.926;2023-08-12T15:14:39;0.73;;;0.50;;
1164;SDS011;571;50.930;6.926;2023-08-12T15:17:06;1.00;;;0.50;;
1164;SDS011;571;50.930;6.926;2023-08-12T15:19:33;0.87;;;0.40;;
1164;SDS011;571;50.930;6.926;2023-08-12T15:22:03;0.70;;;0.57;;
1164;SDS011;571;50.930;6.926;2023-08-12T15:24:32;1.53;;;0.50;;
1164;SDS011;571;50.930;6.926;2023-08-12T15:26:59;1.00;;;0.63;;
1164;SDS011;571;50.930;6.926;2023-08-12T15:29:28;0.80;;;0.53;;
1164;SDS011;571;50.930;6.926;2023-08-12T15:32:10;1.20;;;0.80;;
1164;SDS011;571;50.930;6.926;2023-08-12T15:41:49;1.83;;;1.07;;
1164;SDS011;571;50.930;6.926;2023-08-12T15:44:58;2.07;;;1.00;;
1164;SDS011;571;50.930;6.926;2023-08-12T15:51:08;1.10;;;0.90;;
1164;SDS011;571;50.930;6.926;2023-08-12T15:54:13;1.13;;;0.77;;
1164;SDS011;571;50.930;6.926;2023-08-12T15:56:51;2.40;;;0.83;;
1164;SDS011;571;50.930;6.926;2023-08-12T15:59:47;1.20;;;0.70;;
1164;SDS011;571;50.930;6.926;2023-08-12T16:02:59;1.40;;;1.17;;
1164;SDS011;571;50.930;6.926;2023-08-12T16:05:26;3.70;;;0.90;;
1164;SDS011;571;50.930;6.926;2023-08-12T16:07:53;1.73;;;1.20;;
1164;SDS011;571;50.930;6.926;2023-08-12T16:10:20;2.27;;;0.80;;
1164;SDS011;571;50.930;6.926;2023-08-12T16:12:46;2.03;;;0.87;;
1164;SDS011;571;50.930;6.926;2023-08-12T16:15:13;2.63;;;1.00;;
1164;SDS011;571;50.930;6.926;2023-08-12T16:17:40;1.60;;;0.80;;
1164;SDS011;571;50.930;6.926;2023-08-12T16:20:08;0.80;;;0.67;;
1164;SDS011;571;50.930;6.926;2023-08-12T16:22:37;2.53;;;0.80;;
1164;SDS011;571;50.930;6.926;2023-08-12T16:25:04;1.23;;;0.90;;
1164;SDS011;571;50.930;6.926;2023-08-12T16:27:32;4.00;;;1.00;;
1164;SDS011;571;50.930;6.926;2023-08-12T16:29:58;1.90;;;1.07;;
1164;SDS011;571;50.930;6.926;2023-08-12T16:32:26;1.83;;;1.20;;
1164;SDS011;571;50.930;6.926;2023-08-12T16:34:52;2.43;;;1.20;;
1164;SDS011;571;50.930;6.926;2023-08-12T16:37:20;1.77;;;1.20;;
1164;SDS011;571;50.930;6.926;2023-08-12T16:39:47;2.17;;;1.43;;
1164;SDS011;571;50.930;6.926;2023-08-12T16:42:16;2.70;;;1.30;;
1164;SDS011;571;50.930;6.926;2023-08-12T16:44:42;2.00;;;1.20;;
1164;SDS011;571;50.930;6.926;2023-08-12T16:47:09;2.23;;;1.10;;
1164;SDS011;571;50.930;6.926;2023-08-12T16:49:37;1.63;;;0.90;;
1164;SDS011;571;50.930;6.926;2023-08-12T16:52:03;3.30;;;1.67;;
1164;SDS011;571;50.930;6.926;2023-08-12T16:54:32;2.37;;;1.60;;
1164;SDS011;571;50.930;6.926;2023-08-12T16:56:58;3.23;;;1.50;;
1164;SDS011;571;50.930;6.926;2023-08-12T17:02:47;3.53;;;1.40;;
1164;SDS011;571;50.930;6.926;2023-08-12T17:11:05;2.50;;;1.60;;
1164;SDS011;571;50.930;6.926;2023-08-12T17:14:06;3.60;;;1.50;;
1164;SDS011;571;50.930;6.926;2023-08-12T17:16:39;6.60;;;1.67;;
1164;SDS011;571;50.930;6.926;2023-08-12T17:19:10;3.13;;;1.90;;
1164;SDS011;571;50.930;6.926;2023-08-12T17:21:55;4.83;;;1.23;;
1164;SDS011;571;50.930;6.926;2023-08-12T17:28:15;2.83;;;1.47;;
1164;SDS011;571;50.930;6.926;2023-08-12T17:31:42;3.13;;;2.00;;
1164;SDS011;571;50.930;6.926;2023-08-12T17:34:49;2.73;;;2.17;;
1164;SDS011;571;50.930;6.926;2023-08-12T17:37:46;3.97;;;2.30;;
1164;SDS011;571;50.930;6.926;2023-08-12T17:40:50;3.00;;;1.83;;
1164;SDS011;571;50.930;6.926;2023-08-12T18:00:51;2.67;;;2.30;;
1164;SDS011;571;50.930;6.926;2023-08-12T18:07:03;3.00;;;1.63;;
1164;SDS011;571;50.930;6.926;2023-08-12T18:09:32;2.70;;;1.83;;
1164;SDS011;571;50.930;6.926;2023-08-12T18:12:03;3.60;;;1.60;;
1164;SDS011;571;50.930;6.926;2023-08-12T18:15:12;9.57;;;2.07;;
1164;SDS011;571;50.930;6.926;2023-08-12T18:17:54;2.77;;;1.60;;
1164;SDS011;571;50.930;6.926;2023-08-12T18:23:55;2.50;;;1.60;;
1164;SDS011;571;50.930;6.926;2023-08-12T18:26:14;3.30;;;1.80;;
1164;SDS011;571;50.930;6.926;2023-08-12T18:28:41;4.13;;;1.97;;
1164;SDS011;571;50.930;6.926;2023-08-12T18:31:08;3.30;;;1.93;;
1164;SDS011;571;50.930;6.926;2023-08-12T18:33:36;3.43;;;1.57;;
1164;SDS011;571;50.930;6.926;2023-08-12T18:36:03;3.07;;;1.43;;
1164;SDS011;571;50.930;6.926;2023-08-12T18:38:30;4.80;;;2.27;;
1164;SDS011;571;50.930;6.926;2023-08-12T18:41:00;2.40;;;1.63;;
1164;SDS011;571;50.930;6.926;2023-08-12T18:44:17;5.90;;;2.30;;
1164;SDS011;571;50.930;6.926;2023-08-12T18:48:08;2.80;;;1.83;;
1164;SDS011;571;50.930;6.926;2023-08-12T18:51:15;5.30;;;1.33;;
1164;SDS011;571;50.930;6.926;2023-08-12T18:54:36;4.03;;;3.20;;
1164;SDS011;571;50.930;6.926;2023-08-12T19:14:56;5.38;;;2.67;;
1164;SDS011;571;50.930;6.926;2023-08-12T19:17:22;3.30;;;2.60;;
1164;SDS011;571;50.930;6.926;2023-08-12T19:19:49;3.20;;;2.60;;
1164;SDS011;571;50.930;6.926;2023-08-12T19:22:16;3.80;;;2.17;;
1164;SDS011;571;50.930;6.926;2023-08-12T19:24:43;5.63;;;2.73;;
1164;SDS011;571;50.930;6.926;2023-08-12T19:27:09;9.50;;;2.83;;
1164;SDS011;571;50.930;6.926;2023-08-12T19:29:36;4.30;;;2.53;;
1164;SDS011;571;50.930;6.926;2023-08-12T19:32:05;8.47;;;2.93;;
1164;SDS011;571;50.930;6.926;2023-08-12T19:34:32;7.97;;;2.23;;
1164;SDS011;571;50.930;6.926;2023-08-12T19:37:01;4.87;;;3.20;;
1164;SDS011;571;50.930;6.926;2023-08-12T19:39:27;3.37;;;2.70;;
1164;SDS011;571;50.930;6.926;2023-08-12T19:41:54;3.63;;;2.77;;
1164;SDS011;571;50.930;6.926;2023-08-12T19:44:24;4.70;;;2.60;;
1164;SDS011;571;50.930;6.926;2023-08-12T19:46:51;3.00;;;2.70;;
1164;SDS011;571;50.930;6.926;2023-08-12T19:49:19;4.17;;;2.70;;
1164;SDS011;571;50.930;6.926;2023-08-12T19:51:45;6.07;;;2.70;;
1164;SDS011;571;50.930;6.926;2023-08-12T19:54:12;5.03;;;3.53;;
1164;SDS011;571;50.930;6.926;2023-08-12T19:56:39;6.20;;;3.03;;
1164;SDS011;571;50.930;6.926;2023-08-12T19:59:06;3.90;;;2.87;;
1164;SDS011;571;50.930;6.926;2023-08-12T20:10:07;6.40;;;2.80;;
1164;SDS011;571;50.930;6.926;2023-08-12T20:12:35;4.33;;;3.67;;
1164;SDS011;571;50.930;6.926;2023-08-12T20:15:02;5.90;;;2.93;;
1164;SDS011;571;50.930;6.926;2023-08-12T20:17:30;6.83;;;3.03;;
1164;SDS011;571;50.930;6.926;2023-08-12T20:23:02;4.23;;;3.10;;
1164;SDS011;571;50.930;6.926;2023-08-12T20:25:57;4.47;;;3.50;;
1164;SDS011;571;50.930;6.926;2023-08-12T20:28:30;7.10;;;3.27;;
1164;SDS011;571;50.930;6.926;2023-08-12T20:30:57;6.70;;;2.90;;
1164;SDS011;571;50.930;6.926;2023-08-12T20:33:23;4.57;;;2.67;;
1164;SDS011;571;50.930;6.926;2023-08-12T20:35:51;9.17;;;5.37;;
1164;SDS011;571;50.930;6.926;2023-08-12T20:38:18;2.87;;;2.57;;
1164;SDS011;571;50.930;6.926;2023-08-12T20:40:45;4.73;;;3.10;;
1164;SDS011;571;50.930;6.926;2023-08-12T20:43:12;3.63;;;3.20;;
1164;SDS011;571;50.930;6.926;2023-08-12T20:45:39;4.90;;;3.10;;
1164;SDS011;571;50.930;6.926;2023-08-12T20:48:05;3.87;;;3.03;;
1164;SDS011;571;50.930;6.926;2023-08-12T20:50:32;6.30;;;3.23;;
1164;SDS011;571;50.930;6.926;2023-08-12T20:53:00;4.07;;;3.30;;
1164;SDS011;571;50.930;6.926;2023-08-12T20:55:28;4.90;;;3.83;;
1164;SDS011;571;50.930;6.926;2023-08-12T20:57:54;7.23;;;3.50;;
1164;SDS011;571;50.930;6.926;2023-08-12T21:00:21;6.00;;;3.77;;
1164;SDS011;571;50.930;6.926;2023-08-12T21:02:48;3.37;;;3.00;;
1164;SDS011;571;50.930;6.926;2023-08-12T21:05:15;3.70;;;3.40;;
1164;SDS011;571;50.930;6.926;2023-08-12T21:07:42;5.00;;;3.47;;
1164;SDS011;571;50.930;6.926;2023-08-12T21:10:11;4.40;;;3.73;;
1164;SDS011;571;50.930;6.926;2023-08-12T21:12:38;7.77;;;4.00;;
1164;SDS011;571;50.930;6.926;2023-08-12T21:15:05;4.27;;;3.80;;
1164;SDS011;571;50.930;6.926;2023-08-12T21:17:32;3.27;;;2.93;;
1164;SDS011;571;50.930;6.926;2023-08-12T21:19:59;4.57;;;3.40;;
1164;SDS011;571;50.930;6.926;2023-08-12T21:22:26;5.67;;;3.97;;
1164;SDS011;571;50.930;6.926;2023-08-12T21:24:53;4.13;;;3.53;;
1164;SDS011;571;50.930;6.926;2023-08-12T21:27:21;4.53;;;3.47;;
1164;SDS011;571;50.930;6.926;2023-08-12T21:29:48;6.40;;;4.00;;
1164;SDS011;571;50.930;6.926;2023-08-12T21:32:14;5.10;;;4.17;;
1164;SDS011;571;50.930;6.926;2023-08-12T21:34:41;4.70;;;3.70;;
1164;SDS011;571;50.930;6.926;2023-08-12T21:37:08;4.33;;;4.00;;
1164;SDS011;571;50.930;6.926;2023-08-12T21:39:35;3.97;;;3.63;;
1164;SDS011;571;50.930;6.926;2023-08-12T21:42:02;5.13;;;4.57;;
1164;SDS011;571;50.930;6.926;2023-08-12T21:44:31;7.23;;;4.43;;
1164;SDS011;571;50.930;6.926;2023-08-12T21:46:58;7.97;;;5.17;;
1164;SDS011;571;50.930;6.926;2023-08-12T21:49:25;6.70;;;4.70;;
1164;SDS011;571;50.930;6.926;2023-08-12T21:51:52;5.73;;;4.60;;
1164;SDS011;571;50.930;6.926;2023-08-12T21:54:19;6.10;;;4.37;;
1164;SDS011;571;50.930;6.926;2023-08-12T21:56:46;4.37;;;3.70;;
1164;SDS011;571;50.930;6.926;2023-08-12T21:59:12;4.57;;;4.17;;
